CheckWX is a tool to help pilots better visualize weather data.  It is not intended as a substitute for an official pre-flight weather briefing.

17:29:34 UTC

KLFT TAF
Lafayette Regional / Paul Fournet Field Airport
Lafayette, Louisiana, USA
KLFT 081720Z 0818/0918 22012G18KT P6SM SCT025 BKN035 FM090200 21007KT P6SM SCT015 BKN250 FM090800 22005KT P6SM BKN012 TEMPO 0909/0913 BKN009 FM091400 23009KT P6SM SCT012 BKN020

Jul-8@
18:00 UTC

Jul-8 @ 18:00 UTC

Jul-9@
02:00 UTC

Jul-9 @ 02:00 UTC

TAF KLFT 081720Z 0818/0918 22012G18KT P6SM SCT025 BKN035

Expired

Wind
  • 220° at 12 KTS
  • {Gusting to 18 KTS
Cloud Levels
  • Scattered at 2,500' AGL
  • Broken at 3,500' AGL

Jul-9@
02:00 UTC

Jul-9 @ 02:00 UTC

Jul-9@
08:00 UTC

Jul-9 @ 08:00 UTC

FM090200 21007KT P6SM SCT015 BKN250

Expired

Wind
  • 210° at 7 KTS
Cloud Levels
  • Scattered at 1,500' AGL
  • Broken at 25,000' AGL

Jul-9@
08:00 UTC

Jul-9 @ 08:00 UTC

Jul-9@
14:00 UTC

Jul-9 @ 14:00 UTC

FM090800 22005KT P6SM BKN012

Expired

Wind
  • 220° at 5 KTS
Cloud Levels
  • Broken at 1,200' AGL

Jul-9@
09:00 UTC

Jul-9 @ 09:00 UTC

Jul-9@
13:00 UTC

Jul-9 @ 13:00 UTC

TEMPO 0909/0913 BKN009

Expired

Cloud Levels
  • Broken at 900' AGL

Jul-9@
14:00 UTC

Jul-9 @ 14:00 UTC

Jul-9@
18:00 UTC

Jul-9 @ 18:00 UTC

FM091400 23009KT P6SM SCT012 BKN020

From

From Standard forecast or significant change

Wind
  • 230° at 9 KTS
Cloud Levels
  • Scattered at 1,200' AGL
  • Broken at 2,000' AGL